createdAt,value
2019-02-14T00:01:56.825Z,102989.24
2019-02-14T00:06:59.951Z,102992.70
2019-02-14T00:12:02.467Z,102994.84
2019-02-14T00:17:05.474Z,103000.03
2019-02-14T00:22:08.564Z,102996.59
2019-02-14T00:27:10.717Z,102990.96
2019-02-14T00:32:13.175Z,103000.05
2019-02-14T00:37:15.343Z,102998.33
2019-02-14T00:42:17.547Z,103009.98
2019-02-14T00:47:20.105Z,103010.46
2019-02-14T00:52:23.109Z,103015.64
2019-02-14T00:57:26.534Z,103013.88
2019-02-14T01:02:29.245Z,103014.78
2019-02-14T01:07:31.537Z,103019.97
2019-02-14T01:12:33.720Z,103007.02
2019-02-14T01:17:36.477Z,103017.77
2019-02-14T01:22:38.987Z,103011.33
2019-02-14T01:27:41.405Z,103017.41
2019-02-14T01:32:44.986Z,103013.56
2019-02-14T01:37:48.239Z,103002.77
2019-02-14T01:42:50.754Z,103004.50
2019-02-14T01:47:53.459Z,103003.27
2019-02-14T01:52:55.624Z,102995.94
2019-02-14T01:57:57.799Z,102999.41
2019-02-14T02:03:00.032Z,102990.39
2019-02-14T02:08:02.858Z,102989.52
2019-02-14T02:13:05.635Z,102996.00
2019-02-14T02:18:07.829Z,103002.00
2019-02-14T02:23:10.325Z,103011.48
2019-02-14T02:28:13.141Z,103003.27
2019-02-14T02:33:15.993Z,103004.52
2019-02-14T02:38:18.178Z,103008.83
2019-02-14T02:43:21.089Z,103006.59
2019-02-14T02:48:23.884Z,103008.75
2019-02-14T02:53:26.367Z,103015.23
2019-02-14T02:58:28.691Z,103023.87
2019-02-14T03:03:30.877Z,103021.28
2019-02-14T03:08:33.346Z,103027.77
2019-02-14T03:13:35.531Z,103036.02
2019-02-14T03:18:37.786Z,103045.09
2019-02-14T03:23:40.514Z,103052.45
2019-02-14T03:28:42.908Z,103044.69
2019-02-14T03:33:47.042Z,103052.94
2019-02-14T03:38:50.336Z,103055.95
2019-02-14T03:43:52.519Z,103052.44
2019-02-14T03:48:55.629Z,103043.39
2019-02-14T03:53:57.826Z,103048.18
2019-02-14T03:59:00.056Z,103045.23
2019-02-14T04:04:03.230Z,103054.30
2019-02-14T04:09:07.190Z,103056.03
2019-02-14T04:14:09.353Z,103058.69
2019-02-14T04:19:12.172Z,103062.16
2019-02-14T04:24:14.919Z,103071.72
2019-02-14T04:29:17.422Z,103068.74
2019-02-14T04:34:20.183Z,103070.05
2019-02-14T04:39:22.607Z,103071.39
2019-02-14T04:44:24.803Z,103076.52
2019-02-14T04:49:27.019Z,103070.48
2019-02-14T04:54:29.775Z,103067.89
2019-02-14T04:59:32.650Z,103057.53
2019-02-14T05:04:35.647Z,103061.46
2019-02-14T05:09:38.668Z,103075.28
2019-02-14T05:14:41.389Z,103086.89
2019-02-14T05:19:43.738Z,103096.33
2019-02-14T05:24:46.088Z,103094.59
2019-02-14T05:29:48.377Z,103095.84
2019-02-14T05:34:50.626Z,103092.38
2019-02-14T05:39:52.901Z,103087.63
2019-02-14T05:44:55.095Z,103088.54
2019-02-14T05:49:58.004Z,103095.02
2019-02-14T05:55:00.787Z,103093.24
2019-02-14T06:00:04.366Z,103080.30
2019-02-14T06:05:07.996Z,103080.30
2019-02-14T06:10:10.841Z,103069.55
2019-02-14T06:15:13.735Z,103095.46
2019-02-14T06:20:16.804Z,103107.13
2019-02-14T06:25:19.320Z,103099.82
2019-02-14T06:30:22.226Z,103106.75
2019-02-14T06:35:24.698Z,103120.56
2019-02-14T06:40:26.886Z,103128.23
2019-02-14T06:45:29.131Z,103123.04
2019-02-14T06:50:34.829Z,103123.91
2019-02-14T06:55:35.838Z,103119.59
2019-02-14T07:00:38.349Z,103119.16
2019-02-14T07:05:41.627Z,103141.19
2019-02-14T07:10:44.564Z,103152.88
2019-02-14T07:15:47.042Z,103157.15
2019-02-14T07:20:49.231Z,103173.52
2019-02-14T07:25:52.335Z,103173.45
2019-02-14T07:30:55.423Z,103174.26
2019-02-14T07:35:57.797Z,103178.08
2019-02-14T07:41:00.269Z,103183.69
2019-02-14T07:46:02.876Z,103174.99
2019-02-14T07:51:05.092Z,103169.80
2019-02-14T07:56:08.101Z,103181.84
2019-02-14T08:01:10.917Z,103178.81
2019-02-14T08:06:13.412Z,103181.36
2019-02-14T08:11:16.420Z,103169.67
2019-02-14T08:16:18.568Z,103167.03
2019-02-14T08:21:21.957Z,103171.35
2019-02-14T08:26:25.591Z,103152.29
2019-02-14T08:31:28.247Z,103150.53
2019-02-14T08:36:31.377Z,103143.20
2019-02-14T08:41:33.659Z,103146.17
2019-02-14T08:46:35.809Z,103145.65
2019-02-14T08:51:38.002Z,103140.84
2019-02-14T08:56:40.432Z,103136.87
2019-02-14T09:01:42.660Z,103137.14
2019-02-14T09:06:45.087Z,103143.52
2019-02-14T09:11:47.262Z,103145.39
2019-02-14T09:16:49.464Z,103152.02
2019-02-14T09:21:52.063Z,103149.20
2019-02-14T09:26:54.398Z,103141.20
2019-02-14T09:31:56.901Z,103149.52
2019-02-14T09:36:59.442Z,103150.84
2019-02-14T09:42:01.999Z,103150.05
2019-02-14T09:47:04.586Z,103158.86
2019-02-14T09:52:07.434Z,103180.08
2019-02-14T09:57:09.953Z,103184.48
2019-02-14T10:02:12.745Z,103160.55
2019-02-14T10:07:15.649Z,103161.61
2019-02-14T10:12:18.446Z,103155.24
2019-02-14T10:17:22.304Z,103137.13
2019-02-14T10:22:25.172Z,103133.86
2019-02-14T10:27:27.374Z,103137.56
2019-02-14T10:32:30.076Z,103136.99
2019-02-14T10:37:32.742Z,103142.91
2019-02-14T10:42:35.284Z,103144.53
2019-02-14T10:47:37.808Z,103146.56
2019-02-14T10:52:41.605Z,103144.14
2019-02-14T10:57:45.323Z,103128.19
2019-02-14T11:02:49.561Z,103125.97
2019-02-14T11:07:52.589Z,103120.47
2019-02-14T11:12:54.983Z,103112.98
2019-02-14T11:17:58.055Z,103119.06
2019-02-14T11:23:00.968Z,103115.39
2019-02-14T11:28:03.403Z,103117.78
2019-02-14T11:33:06.816Z,103110.84
2019-02-14T11:38:09.381Z,103108.27
2019-02-14T11:43:11.888Z,103109.89
2019-02-14T11:48:14.957Z,103102.05
2019-02-14T11:53:18.414Z,103103.53
2019-02-14T11:58:20.693Z,103095.06
2019-02-14T12:03:22.884Z,103112.14
2019-02-14T12:08:25.185Z,103089.56
2019-02-14T12:13:27.391Z,103086.52
2019-02-14T12:18:30.418Z,103088.39
2019-02-14T12:23:33.366Z,103075.52
2019-02-14T12:28:35.453Z,103080.42
2019-02-14T12:33:39.133Z,103083.38
2019-02-14T12:38:41.595Z,103074.33
2019-02-14T12:43:44.424Z,103071.55
2019-02-14T12:48:46.979Z,103075.36
2019-02-14T12:53:49.683Z,103068.83
2019-02-14T12:58:52.752Z,103073.94
2019-02-14T13:03:55.483Z,103073.47
2019-02-14T13:08:57.907Z,103067.41
2019-02-14T13:14:00.346Z,103060.75
2019-02-14T13:19:02.811Z,103066.63
2019-02-14T13:24:05.274Z,103054.05
2019-02-14T13:29:07.769Z,103058.89
2019-02-14T13:34:10.607Z,103054.49
2019-02-14T13:39:13.506Z,103048.91
2019-02-14T13:44:16.841Z,103043.04
2019-02-14T13:49:19.037Z,103041.59
2019-02-14T13:54:21.485Z,103041.73
2019-02-14T13:59:24.394Z,103040.30
2019-02-14T14:04:26.686Z,103036.59
2019-02-14T14:09:38.273Z,103037.57
2019-02-14T14:14:33.878Z,103037.04
2019-02-14T14:19:37.196Z,103038.00
2019-02-14T14:24:39.706Z,103023.23
2019-02-14T14:29:44.347Z,103023.75
2019-02-14T14:34:46.636Z,103028.56
2019-02-14T14:39:49.519Z,103021.55
2019-02-14T14:44:53.136Z,103018.62
2019-02-14T14:50:00.192Z,103023.70
2019-02-14T14:55:03.186Z,103016.67
2019-02-14T15:00:06.173Z,103009.39
2019-02-14T15:05:08.905Z,103012.20
2019-02-14T15:10:12.065Z,103002.91
2019-02-14T15:15:15.148Z,102996.72
2019-02-14T15:20:18.154Z,102998.26
2019-02-14T15:25:20.899Z,102982.84
2019-02-14T15:30:26.416Z,102977.03
2019-02-14T15:35:30.141Z,102983.44
2019-02-14T15:40:32.635Z,102972.52
2019-02-14T15:45:35.272Z,102975.91
2019-02-14T15:50:37.658Z,102982.59
2019-02-14T15:55:41.661Z,102986.72
2019-02-14T16:00:44.625Z,102982.67
2019-02-14T16:05:47.727Z,102986.23
2019-02-14T16:10:54.079Z,102984.28
2019-02-14T16:15:56.611Z,102980.31
2019-02-14T16:21:00.514Z,102982.25
2019-02-14T16:26:02.829Z,102981.12
2019-02-14T16:31:04.985Z,102986.23
2019-02-14T16:36:07.244Z,102981.50
2019-02-14T16:41:09.436Z,102981.05
2019-02-14T16:46:11.635Z,102983.28
2019-02-14T16:51:13.760Z,102984.00
2019-02-14T16:56:15.901Z,102986.85
2019-02-14T17:01:18.143Z,102995.96
2019-02-14T17:06:20.327Z,102995.00
2019-02-14T17:11:22.905Z,103001.38
2019-02-14T17:16:26.229Z,103007.81
2019-02-14T17:21:29.296Z,103008.97
2019-02-14T17:26:32.110Z,103009.84
2019-02-14T17:31:34.300Z,103021.85
2019-02-14T17:36:36.452Z,103026.11
2019-02-14T17:41:38.966Z,103030.80
2019-02-14T17:46:41.579Z,103029.80
2019-02-14T17:51:44.722Z,103039.62
2019-02-14T17:56:47.981Z,103038.54
2019-02-14T18:01:50.157Z,103047.56
2019-02-14T18:06:52.637Z,103044.77
2019-02-14T18:11:54.817Z,103042.88
2019-02-14T18:16:57.631Z,103034.03
2019-02-14T18:22:00.719Z,103027.41
2019-02-14T18:27:03.336Z,103027.64
2019-02-14T18:32:05.732Z,103018.83
2019-02-14T18:37:08.170Z,103025.72
2019-02-14T18:42:10.754Z,103030.77
2019-02-14T18:47:12.932Z,103026.14
2019-02-14T18:52:15.096Z,103028.52
2019-02-14T18:57:17.889Z,103025.27
2019-02-14T19:02:22.670Z,103021.49
2019-02-14T19:07:24.891Z,103021.66
2019-02-14T19:12:27.442Z,103013.63
2019-02-14T19:17:31.447Z,103013.30
2019-02-14T19:22:34.857Z,103006.56
2019-02-14T19:27:37.433Z,103005.47
2019-02-14T19:32:39.659Z,103006.25
2019-02-14T19:37:41.843Z,103004.17
2019-02-14T19:42:44.248Z,103008.59
2019-02-14T19:47:46.370Z,103003.50
2019-02-14T19:52:48.837Z,102997.87
2019-02-14T19:57:51.971Z,102994.19
2019-02-14T20:02:54.165Z,102993.23
2019-02-14T20:07:57.082Z,102993.17
2019-02-14T20:12:59.626Z,102986.64
2019-02-14T20:18:01.716Z,102991.10
2019-02-14T20:23:04.214Z,102988.16
2019-02-14T20:28:06.385Z,102981.19
2019-02-14T20:33:08.928Z,102985.09
2019-02-14T20:38:11.072Z,102980.02
2019-02-14T20:43:13.383Z,102981.48
2019-02-14T20:48:15.747Z,102985.45
2019-02-14T20:53:19.146Z,102980.73
2019-02-14T20:58:22.188Z,102990.32
2019-02-14T21:03:24.904Z,102999.53
2019-02-14T21:08:27.769Z,102998.36
2019-02-14T21:13:29.952Z,102999.36
2019-02-14T21:18:32.079Z,102996.49
2019-02-14T21:23:35.125Z,102988.86
2019-02-14T21:28:37.449Z,102988.80
2019-02-14T21:33:39.972Z,102997.80
2019-02-14T21:38:42.175Z,102998.93
2019-02-14T21:43:44.875Z,102997.36
2019-02-14T21:48:47.756Z,102993.82
2019-02-14T21:53:50.636Z,102998.02
2019-02-14T21:58:53.127Z,103006.69
2019-02-14T22:03:57.165Z,103000.23
2019-02-14T22:08:59.506Z,103001.95
2019-02-14T22:14:01.870Z,103009.86
2019-02-14T22:19:06.148Z,103009.50
2019-02-14T22:24:09.542Z,103013.49
2019-02-14T22:29:12.558Z,103007.90
2019-02-14T22:34:15.346Z,103010.05
2019-02-14T22:39:17.497Z,103012.25
2019-02-14T22:44:19.691Z,103014.86
2019-02-14T22:49:21.916Z,103023.12
2019-02-14T22:54:24.016Z,103018.47
2019-02-14T22:59:26.352Z,103022.89
2019-02-14T23:04:29.013Z,103026.89
2019-02-14T23:09:31.709Z,103036.09
2019-02-14T23:14:34.153Z,103040.13
2019-02-14T23:19:36.413Z,103042.38
2019-02-14T23:24:38.681Z,103050.65
2019-02-14T23:29:40.866Z,103047.76
2019-02-14T23:34:43.731Z,103045.68
2019-02-14T23:39:47.007Z,103042.70
2019-02-14T23:44:49.198Z,103041.84
2019-02-14T23:49:52.809Z,103045.76
2019-02-14T23:54:55.018Z,103042.02
2019-02-14T23:59:58.651Z,103038.15
